sensor_id;sensor_type;location;lat;lon;timestamp;P1;durP1;ratioP1;P2;durP2;ratioP2
13795;SDS011;40911;51.552;9.874;2023-05-31T00:01:49;11.40;;;6.70;;
13795;SDS011;40911;51.552;9.874;2023-05-31T00:06:32;13.18;;;6.43;;
13795;SDS011;40911;51.552;9.874;2023-05-31T00:08:54;12.30;;;5.97;;
13795;SDS011;40911;51.552;9.874;2023-05-31T00:13:38;12.43;;;6.68;;
13795;SDS011;40911;51.552;9.874;2023-05-31T00:18:21;9.82;;;5.82;;
13795;SDS011;40911;51.552;9.874;2023-05-31T00:20:43;8.48;;;6.07;;
13795;SDS011;40911;51.552;9.874;2023-05-31T00:23:05;8.57;;;6.07;;
13795;SDS011;40911;51.552;9.874;2023-05-31T00:25:26;13.80;;;7.07;;
13795;SDS011;40911;51.552;9.874;2023-05-31T00:27:49;9.00;;;6.30;;
13795;SDS011;40911;51.552;9.874;2023-05-31T00:30:12;11.95;;;6.80;;
13795;SDS011;40911;51.552;9.874;2023-05-31T00:32:34;11.77;;;6.45;;
13795;SDS011;40911;51.552;9.874;2023-05-31T00:37:17;10.77;;;5.85;;
13795;SDS011;40911;51.552;9.874;2023-05-31T00:42:00;10.10;;;6.22;;
13795;SDS011;40911;51.552;9.874;2023-05-31T00:46:45;8.98;;;5.65;;
13795;SDS011;40911;51.552;9.874;2023-05-31T00:49:07;13.02;;;6.10;;
13795;SDS011;40911;51.552;9.874;2023-05-31T00:51:29;9.23;;;6.47;;
13795;SDS011;40911;51.552;9.874;2023-05-31T00:53:52;12.90;;;6.30;;
13795;SDS011;40911;51.552;9.874;2023-05-31T00:56:14;9.98;;;6.60;;
13795;SDS011;40911;51.552;9.874;2023-05-31T00:58:36;9.15;;;6.15;;
13795;SDS011;40911;51.552;9.874;2023-05-31T01:00:59;11.18;;;6.15;;
13795;SDS011;40911;51.552;9.874;2023-05-31T01:03:22;10.60;;;6.43;;
13795;SDS011;40911;51.552;9.874;2023-05-31T01:05:44;8.95;;;5.95;;
13795;SDS011;40911;51.552;9.874;2023-05-31T01:08:06;8.23;;;5.63;;
13795;SDS011;40911;51.552;9.874;2023-05-31T01:12:52;11.82;;;5.85;;
13795;SDS011;40911;51.552;9.874;2023-05-31T01:15:21;8.93;;;6.15;;
13795;SDS011;40911;51.552;9.874;2023-05-31T01:17:51;11.90;;;6.30;;
13795;SDS011;40911;51.552;9.874;2023-05-31T01:20:21;14.82;;;6.40;;
13795;SDS011;40911;51.552;9.874;2023-05-31T01:22:49;12.13;;;6.18;;
13795;SDS011;40911;51.552;9.874;2023-05-31T01:25:25;9.27;;;6.20;;
13795;SDS011;40911;51.552;9.874;2023-05-31T01:27:54;10.95;;;6.13;;
13795;SDS011;40911;51.552;9.874;2023-05-31T01:30:17;11.00;;;5.85;;
13795;SDS011;40911;51.552;9.874;2023-05-31T01:32:42;13.18;;;5.97;;
13795;SDS011;40911;51.552;9.874;2023-05-31T01:35:04;11.52;;;6.82;;
13795;SDS011;40911;51.552;9.874;2023-05-31T01:37:26;11.02;;;6.50;;
13795;SDS011;40911;51.552;9.874;2023-05-31T01:39:47;9.25;;;5.97;;
13795;SDS011;40911;51.552;9.874;2023-05-31T01:42:11;9.85;;;6.10;;
13795;SDS011;40911;51.552;9.874;2023-05-31T01:44:35;12.05;;;6.40;;
13795;SDS011;40911;51.552;9.874;2023-05-31T01:46:58;8.55;;;5.72;;
13795;SDS011;40911;51.552;9.874;2023-05-31T01:49:20;12.98;;;6.30;;
13795;SDS011;40911;51.552;9.874;2023-05-31T01:51:43;11.82;;;6.63;;
13795;SDS011;40911;51.552;9.874;2023-05-31T01:54:07;14.38;;;5.97;;
13795;SDS011;40911;51.552;9.874;2023-05-31T01:56:29;10.38;;;6.38;;
13795;SDS011;40911;51.552;9.874;2023-05-31T01:58:52;9.30;;;5.78;;
13795;SDS011;40911;51.552;9.874;2023-05-31T02:01:17;12.50;;;6.47;;
13795;SDS011;40911;51.552;9.874;2023-05-31T02:03:39;10.80;;;6.85;;
13795;SDS011;40911;51.552;9.874;2023-05-31T02:06:01;9.45;;;6.53;;
13795;SDS011;40911;51.552;9.874;2023-05-31T02:10:45;12.05;;;6.57;;
13795;SDS011;40911;51.552;9.874;2023-05-31T02:13:06;10.18;;;6.90;;
13795;SDS011;40911;51.552;9.874;2023-05-31T02:15:28;10.40;;;6.43;;
13795;SDS011;40911;51.552;9.874;2023-05-31T02:17:51;11.38;;;6.30;;
13795;SDS011;40911;51.552;9.874;2023-05-31T02:20:14;9.45;;;6.05;;
13795;SDS011;40911;51.552;9.874;2023-05-31T02:24:57;9.07;;;6.47;;
13795;SDS011;40911;51.552;9.874;2023-05-31T02:27:18;12.35;;;6.88;;
13795;SDS011;40911;51.552;9.874;2023-05-31T02:29:40;12.18;;;7.07;;
13795;SDS011;40911;51.552;9.874;2023-05-31T02:32:02;14.43;;;6.75;;
13795;SDS011;40911;51.552;9.874;2023-05-31T02:34:25;11.15;;;6.68;;
13795;SDS011;40911;51.552;9.874;2023-05-31T02:36:47;16.02;;;6.82;;
13795;SDS011;40911;51.552;9.874;2023-05-31T02:41:30;10.75;;;6.30;;
13795;SDS011;40911;51.552;9.874;2023-05-31T02:43:52;9.85;;;6.40;;
13795;SDS011;40911;51.552;9.874;2023-05-31T02:48:35;9.15;;;6.43;;
13795;SDS011;40911;51.552;9.874;2023-05-31T02:50:58;11.40;;;6.75;;
13795;SDS011;40911;51.552;9.874;2023-05-31T02:53:20;14.05;;;6.88;;
13795;SDS011;40911;51.552;9.874;2023-05-31T02:55:42;12.30;;;7.43;;
13795;SDS011;40911;51.552;9.874;2023-05-31T02:58:03;11.68;;;7.05;;
13795;SDS011;40911;51.552;9.874;2023-05-31T03:00:26;10.40;;;6.80;;
13795;SDS011;40911;51.552;9.874;2023-05-31T03:02:48;12.77;;;7.00;;
13795;SDS011;40911;51.552;9.874;2023-05-31T03:05:10;12.27;;;6.90;;
13795;SDS011;40911;51.552;9.874;2023-05-31T03:07:33;15.05;;;7.25;;
13795;SDS011;40911;51.552;9.874;2023-05-31T03:09:55;10.30;;;7.50;;
13795;SDS011;40911;51.552;9.874;2023-05-31T03:12:16;13.60;;;7.13;;
13795;SDS011;40911;51.552;9.874;2023-05-31T03:14:38;12.27;;;7.38;;
13795;SDS011;40911;51.552;9.874;2023-05-31T03:19:21;11.43;;;6.95;;
13795;SDS011;40911;51.552;9.874;2023-05-31T03:24:06;16.80;;;7.28;;
13795;SDS011;40911;51.552;9.874;2023-05-31T03:26:28;10.80;;;7.05;;
13795;SDS011;40911;51.552;9.874;2023-05-31T03:28:49;10.75;;;7.25;;
13795;SDS011;40911;51.552;9.874;2023-05-31T03:33:32;11.50;;;6.82;;
13795;SDS011;40911;51.552;9.874;2023-05-31T03:35:55;13.05;;;7.50;;
13795;SDS011;40911;51.552;9.874;2023-05-31T03:38:17;10.88;;;6.72;;
13795;SDS011;40911;51.552;9.874;2023-05-31T03:40:40;10.40;;;7.20;;
13795;SDS011;40911;51.552;9.874;2023-05-31T03:43:01;11.13;;;6.90;;
13795;SDS011;40911;51.552;9.874;2023-05-31T03:45:23;15.25;;;7.68;;
13795;SDS011;40911;51.552;9.874;2023-05-31T03:47:45;13.57;;;7.35;;
13795;SDS011;40911;51.552;9.874;2023-05-31T03:50:07;13.05;;;7.00;;
13795;SDS011;40911;51.552;9.874;2023-05-31T03:52:30;12.15;;;7.22;;
13795;SDS011;40911;51.552;9.874;2023-05-31T03:57:14;16.20;;;6.85;;
13795;SDS011;40911;51.552;9.874;2023-05-31T03:59:36;12.63;;;7.15;;
13795;SDS011;40911;51.552;9.874;2023-05-31T04:01:58;18.08;;;7.72;;
13795;SDS011;40911;51.552;9.874;2023-05-31T04:04:20;11.50;;;7.32;;
13795;SDS011;40911;51.552;9.874;2023-05-31T04:09:03;13.98;;;7.35;;
13795;SDS011;40911;51.552;9.874;2023-05-31T04:11:25;15.10;;;7.97;;
13795;SDS011;40911;51.552;9.874;2023-05-31T04:13:48;15.68;;;7.47;;
13795;SDS011;40911;51.552;9.874;2023-05-31T04:16:10;11.48;;;7.88;;
13795;SDS011;40911;51.552;9.874;2023-05-31T04:18:31;14.15;;;7.82;;
13795;SDS011;40911;51.552;9.874;2023-05-31T04:20:53;10.80;;;7.10;;
13795;SDS011;40911;51.552;9.874;2023-05-31T04:23:15;14.95;;;7.63;;
13795;SDS011;40911;51.552;9.874;2023-05-31T04:25:37;14.10;;;7.90;;
13795;SDS011;40911;51.552;9.874;2023-05-31T04:27:59;13.05;;;8.02;;
13795;SDS011;40911;51.552;9.874;2023-05-31T04:30:22;12.48;;;7.78;;
13795;SDS011;40911;51.552;9.874;2023-05-31T04:32:44;15.25;;;7.85;;
13795;SDS011;40911;51.552;9.874;2023-05-31T04:35:12;17.08;;;8.32;;
13795;SDS011;40911;51.552;9.874;2023-05-31T04:37:34;11.80;;;7.60;;
13795;SDS011;40911;51.552;9.874;2023-05-31T04:39:56;15.10;;;7.50;;
13795;SDS011;40911;51.552;9.874;2023-05-31T04:42:18;12.52;;;7.47;;
13795;SDS011;40911;51.552;9.874;2023-05-31T04:47:03;10.98;;;7.80;;
13795;SDS011;40911;51.552;9.874;2023-05-31T04:49:25;13.40;;;7.65;;
13795;SDS011;40911;51.552;9.874;2023-05-31T04:54:09;14.45;;;8.10;;
13795;SDS011;40911;51.552;9.874;2023-05-31T04:58:52;16.75;;;8.10;;
13795;SDS011;40911;51.552;9.874;2023-05-31T05:01:13;11.73;;;7.85;;
13795;SDS011;40911;51.552;9.874;2023-05-31T05:03:36;14.95;;;8.27;;
13795;SDS011;40911;51.552;9.874;2023-05-31T05:06:00;14.27;;;7.60;;
13795;SDS011;40911;51.552;9.874;2023-05-31T05:08:22;13.15;;;7.70;;
13795;SDS011;40911;51.552;9.874;2023-05-31T05:13:05;12.20;;;7.75;;
13795;SDS011;40911;51.552;9.874;2023-05-31T05:15:27;14.82;;;7.47;;
13795;SDS011;40911;51.552;9.874;2023-05-31T05:20:12;14.68;;;7.05;;
13795;SDS011;40911;51.552;9.874;2023-05-31T05:22:34;12.43;;;7.00;;
13795;SDS011;40911;51.552;9.874;2023-05-31T05:27:18;12.07;;;7.55;;
13795;SDS011;40911;51.552;9.874;2023-05-31T05:29:41;11.75;;;7.50;;
13795;SDS011;40911;51.552;9.874;2023-05-31T05:34:25;10.85;;;7.93;;
13795;SDS011;40911;51.552;9.874;2023-05-31T05:36:48;14.50;;;9.40;;
13795;SDS011;40911;51.552;9.874;2023-05-31T05:39:09;15.55;;;12.50;;
13795;SDS011;40911;51.552;9.874;2023-05-31T05:43:52;14.02;;;10.25;;
13795;SDS011;40911;51.552;9.874;2023-05-31T05:48:36;10.82;;;7.85;;
13795;SDS011;40911;51.552;9.874;2023-05-31T05:53:20;10.95;;;7.10;;
13795;SDS011;40911;51.552;9.874;2023-05-31T05:55:47;10.98;;;7.00;;
13795;SDS011;40911;51.552;9.874;2023-05-31T05:58:10;10.65;;;6.88;;
13795;SDS011;40911;51.552;9.874;2023-05-31T06:02:53;9.73;;;6.07;;
13795;SDS011;40911;51.552;9.874;2023-05-31T06:07:36;10.85;;;6.57;;
13795;SDS011;40911;51.552;9.874;2023-05-31T06:12:22;10.10;;;6.20;;
13795;SDS011;40911;51.552;9.874;2023-05-31T06:14:44;12.10;;;5.95;;
13795;SDS011;40911;51.552;9.874;2023-05-31T06:19:27;10.18;;;5.90;;
13795;SDS011;40911;51.552;9.874;2023-05-31T06:24:11;10.40;;;6.18;;
13795;SDS011;40911;51.552;9.874;2023-05-31T06:28:58;12.75;;;5.75;;
13795;SDS011;40911;51.552;9.874;2023-05-31T06:31:20;9.40;;;5.57;;
13795;SDS011;40911;51.552;9.874;2023-05-31T06:36:03;7.68;;;5.30;;
13795;SDS011;40911;51.552;9.874;2023-05-31T06:38:25;11.95;;;6.32;;
13795;SDS011;40911;51.552;9.874;2023-05-31T06:43:10;10.95;;;5.20;;
13795;SDS011;40911;51.552;9.874;2023-05-31T06:45:31;9.20;;;5.18;;
13795;SDS011;40911;51.552;9.874;2023-05-31T06:50:15;9.32;;;5.35;;
13795;SDS011;40911;51.552;9.874;2023-05-31T06:52:36;10.20;;;5.60;;
13795;SDS011;40911;51.552;9.874;2023-05-31T06:57:19;10.68;;;5.22;;
13795;SDS011;40911;51.552;9.874;2023-05-31T07:02:04;9.32;;;5.40;;
13795;SDS011;40911;51.552;9.874;2023-05-31T07:04:26;11.57;;;5.47;;
13795;SDS011;40911;51.552;9.874;2023-05-31T07:09:09;10.55;;;4.85;;
13795;SDS011;40911;51.552;9.874;2023-05-31T07:11:31;7.35;;;4.53;;
13795;SDS011;40911;51.552;9.874;2023-05-31T07:16:21;9.05;;;4.80;;
13795;SDS011;40911;51.552;9.874;2023-05-31T07:18:42;9.48;;;4.43;;
13795;SDS011;40911;51.552;9.874;2023-05-31T07:21:05;9.65;;;4.63;;
13795;SDS011;40911;51.552;9.874;2023-05-31T07:23:28;9.93;;;4.75;;
13795;SDS011;40911;51.552;9.874;2023-05-31T07:25:50;8.27;;;4.50;;
13795;SDS011;40911;51.552;9.874;2023-05-31T07:30:33;7.63;;;4.80;;
13795;SDS011;40911;51.552;9.874;2023-05-31T07:35:18;13.05;;;4.20;;
13795;SDS011;40911;51.552;9.874;2023-05-31T07:37:39;13.18;;;4.97;;
13795;SDS011;40911;51.552;9.874;2023-05-31T07:42:25;9.35;;;4.18;;
13795;SDS011;40911;51.552;9.874;2023-05-31T07:44:47;7.93;;;4.60;;
13795;SDS011;40911;51.552;9.874;2023-05-31T07:47:09;10.90;;;3.88;;
13795;SDS011;40911;51.552;9.874;2023-05-31T07:49:32;8.95;;;4.07;;
13795;SDS011;40911;51.552;9.874;2023-05-31T07:51:54;8.13;;;3.72;;
13795;SDS011;40911;51.552;9.874;2023-05-31T07:56:37;12.60;;;4.30;;
13795;SDS011;40911;51.552;9.874;2023-05-31T07:59:00;11.68;;;4.20;;
13795;SDS011;40911;51.552;9.874;2023-05-31T08:01:22;9.95;;;3.85;;
13795;SDS011;40911;51.552;9.874;2023-05-31T08:03:43;9.07;;;4.22;;
13795;SDS011;40911;51.552;9.874;2023-05-31T08:06:06;7.07;;;3.55;;
13795;SDS011;40911;51.552;9.874;2023-05-31T08:08:28;8.68;;;3.83;;
13795;SDS011;40911;51.552;9.874;2023-05-31T08:10:52;8.95;;;3.63;;
13795;SDS011;40911;51.552;9.874;2023-05-31T08:13:14;6.57;;;3.60;;
13795;SDS011;40911;51.552;9.874;2023-05-31T08:15:36;8.15;;;3.92;;
13795;SDS011;40911;51.552;9.874;2023-05-31T08:17:57;11.57;;;3.97;;
13795;SDS011;40911;51.552;9.874;2023-05-31T08:20:20;6.93;;;3.78;;
13795;SDS011;40911;51.552;9.874;2023-05-31T08:22:43;10.98;;;3.80;;
13795;SDS011;40911;51.552;9.874;2023-05-31T08:25:05;6.43;;;3.75;;
13795;SDS011;40911;51.552;9.874;2023-05-31T08:27:27;10.50;;;3.42;;
13795;SDS011;40911;51.552;9.874;2023-05-31T08:29:49;7.05;;;3.10;;
13795;SDS011;40911;51.552;9.874;2023-05-31T08:32:11;7.82;;;2.97;;
13795;SDS011;40911;51.552;9.874;2023-05-31T08:34:32;6.50;;;3.08;;
13795;SDS011;40911;51.552;9.874;2023-05-31T08:36:54;7.22;;;3.45;;
13795;SDS011;40911;51.552;9.874;2023-05-31T08:39:17;5.82;;;3.20;;
13795;SDS011;40911;51.552;9.874;2023-05-31T08:41:41;7.63;;;2.70;;
13795;SDS011;40911;51.552;9.874;2023-05-31T08:44:09;13.52;;;3.10;;
13795;SDS011;40911;51.552;9.874;2023-05-31T08:46:32;7.45;;;2.60;;
13795;SDS011;40911;51.552;9.874;2023-05-31T08:48:57;9.18;;;2.85;;
13795;SDS011;40911;51.552;9.874;2023-05-31T08:51:26;6.78;;;2.60;;
13795;SDS011;40911;51.552;9.874;2023-05-31T08:53:48;7.18;;;2.92;;
13795;SDS011;40911;51.552;9.874;2023-05-31T08:56:12;7.57;;;2.85;;
13795;SDS011;40911;51.552;9.874;2023-05-31T08:58:34;5.50;;;2.30;;
13795;SDS011;40911;51.552;9.874;2023-05-31T09:00:58;7.25;;;2.63;;
13795;SDS011;40911;51.552;9.874;2023-05-31T09:03:22;3.88;;;2.25;;
13795;SDS011;40911;51.552;9.874;2023-05-31T09:05:44;4.57;;;2.60;;
13795;SDS011;40911;51.552;9.874;2023-05-31T09:08:06;4.80;;;2.33;;
13795;SDS011;40911;51.552;9.874;2023-05-31T09:10:28;6.38;;;2.25;;
13795;SDS011;40911;51.552;9.874;2023-05-31T09:12:51;5.72;;;2.95;;
13795;SDS011;40911;51.552;9.874;2023-05-31T09:15:13;4.18;;;2.15;;
13795;SDS011;40911;51.552;9.874;2023-05-31T09:17:35;8.43;;;2.70;;
13795;SDS011;40911;51.552;9.874;2023-05-31T09:19:58;7.80;;;2.30;;
13795;SDS011;40911;51.552;9.874;2023-05-31T09:22:21;6.43;;;2.45;;
13795;SDS011;40911;51.552;9.874;2023-05-31T09:24:48;5.30;;;2.47;;
13795;SDS011;40911;51.552;9.874;2023-05-31T09:27:10;5.13;;;2.22;;
13795;SDS011;40911;51.552;9.874;2023-05-31T09:29:33;5.70;;;2.40;;
13795;SDS011;40911;51.552;9.874;2023-05-31T09:32:07;4.93;;;2.45;;
13795;SDS011;40911;51.552;9.874;2023-05-31T09:34:29;8.10;;;2.60;;
13795;SDS011;40911;51.552;9.874;2023-05-31T09:36:51;5.43;;;2.25;;
13795;SDS011;40911;51.552;9.874;2023-05-31T09:39:13;5.13;;;2.28;;
13795;SDS011;40911;51.552;9.874;2023-05-31T09:41:35;4.63;;;1.83;;
13795;SDS011;40911;51.552;9.874;2023-05-31T09:43:56;7.85;;;2.13;;
13795;SDS011;40911;51.552;9.874;2023-05-31T09:46:20;4.82;;;2.15;;
13795;SDS011;40911;51.552;9.874;2023-05-31T09:48:42;6.22;;;2.25;;
13795;SDS011;40911;51.552;9.874;2023-05-31T09:51:05;6.03;;;2.08;;
13795;SDS011;40911;51.552;9.874;2023-05-31T09:53:28;4.80;;;2.15;;
13795;SDS011;40911;51.552;9.874;2023-05-31T09:55:50;4.38;;;1.95;;
13795;SDS011;40911;51.552;9.874;2023-05-31T09:58:11;5.57;;;1.80;;
13795;SDS011;40911;51.552;9.874;2023-05-31T10:00:50;3.67;;;1.90;;
13795;SDS011;40911;51.552;9.874;2023-05-31T10:03:13;5.45;;;1.98;;
13795;SDS011;40911;51.552;9.874;2023-05-31T10:05:35;5.90;;;1.75;;
13795;SDS011;40911;51.552;9.874;2023-05-31T10:07:56;3.75;;;2.00;;
13795;SDS011;40911;51.552;9.874;2023-05-31T10:10:18;7.57;;;2.08;;
13795;SDS011;40911;51.552;9.874;2023-05-31T10:12:42;5.90;;;2.00;;
13795;SDS011;40911;51.552;9.874;2023-05-31T10:15:09;4.53;;;2.10;;
13795;SDS011;40911;51.552;9.874;2023-05-31T10:17:37;4.40;;;2.10;;
13795;SDS011;40911;51.552;9.874;2023-05-31T10:20:04;5.18;;;2.00;;
13795;SDS011;40911;51.552;9.874;2023-05-31T10:22:29;6.38;;;2.30;;
13795;SDS011;40911;51.552;9.874;2023-05-31T10:24:52;4.47;;;2.45;;
13795;SDS011;40911;51.552;9.874;2023-05-31T10:27:22;6.13;;;2.30;;
13795;SDS011;40911;51.552;9.874;2023-05-31T10:29:50;6.00;;;2.40;;
13795;SDS011;40911;51.552;9.874;2023-05-31T10:32:13;11.52;;;2.63;;
13795;SDS011;40911;51.552;9.874;2023-05-31T10:34:40;4.55;;;2.28;;
13795;SDS011;40911;51.552;9.874;2023-05-31T10:37:03;6.07;;;2.00;;
13795;SDS011;40911;51.552;9.874;2023-05-31T10:39:28;4.63;;;1.77;;
13795;SDS011;40911;51.552;9.874;2023-05-31T10:42:06;6.20;;;1.80;;
13795;SDS011;40911;51.552;9.874;2023-05-31T10:44:35;6.25;;;2.00;;
13795;SDS011;40911;51.552;9.874;2023-05-31T10:47:01;4.68;;;1.90;;
13795;SDS011;40911;51.552;9.874;2023-05-31T10:49:29;6.47;;;2.63;;
13795;SDS011;40911;51.552;9.874;2023-05-31T10:52:03;3.70;;;1.60;;
13795;SDS011;40911;51.552;9.874;2023-05-31T10:54:27;7.97;;;1.90;;
13795;SDS011;40911;51.552;9.874;2023-05-31T10:56:52;6.65;;;2.15;;
13795;SDS011;40911;51.552;9.874;2023-05-31T10:59:17;7.50;;;2.17;;
13795;SDS011;40911;51.552;9.874;2023-05-31T11:01:39;4.80;;;1.98;;
13795;SDS011;40911;51.552;9.874;2023-05-31T11:04:01;7.45;;;2.10;;
13795;SDS011;40911;51.552;9.874;2023-05-31T11:06:23;4.35;;;1.90;;
13795;SDS011;40911;51.552;9.874;2023-05-31T11:08:58;3.15;;;1.92;;
13795;SDS011;40911;51.552;9.874;2023-05-31T11:11:28;6.47;;;2.13;;
13795;SDS011;40911;51.552;9.874;2023-05-31T11:14:05;5.13;;;1.92;;
13795;SDS011;40911;51.552;9.874;2023-05-31T11:16:28;4.32;;;1.90;;
13795;SDS011;40911;51.552;9.874;2023-05-31T11:19:02;5.82;;;2.00;;
13795;SDS011;40911;51.552;9.874;2023-05-31T11:24:10;5.45;;;1.92;;
13795;SDS011;40911;51.552;9.874;2023-05-31T11:26:52;4.88;;;2.20;;
13795;SDS011;40911;51.552;9.874;2023-05-31T11:29:14;7.22;;;2.00;;
13795;SDS011;40911;51.552;9.874;2023-05-31T11:34:18;6.57;;;2.33;;
13795;SDS011;40911;51.552;9.874;2023-05-31T11:36:40;4.38;;;2.13;;
13795;SDS011;40911;51.552;9.874;2023-05-31T11:39:05;3.80;;;2.03;;
13795;SDS011;40911;51.552;9.874;2023-05-31T11:41:28;5.88;;;2.05;;
13795;SDS011;40911;51.552;9.874;2023-05-31T11:43:50;4.22;;;2.03;;
13795;SDS011;40911;51.552;9.874;2023-05-31T11:46:12;5.18;;;1.80;;
13795;SDS011;40911;51.552;9.874;2023-05-31T11:48:35;4.03;;;1.90;;
13795;SDS011;40911;51.552;9.874;2023-05-31T11:50:59;5.47;;;2.00;;
13795;SDS011;40911;51.552;9.874;2023-05-31T11:53:21;9.95;;;2.30;;
13795;SDS011;40911;51.552;9.874;2023-05-31T11:55:46;4.75;;;2.00;;
13795;SDS011;40911;51.552;9.874;2023-05-31T11:58:10;4.65;;;1.95;;
13795;SDS011;40911;51.552;9.874;2023-05-31T12:00:31;5.35;;;1.92;;
13795;SDS011;40911;51.552;9.874;2023-05-31T12:02:54;6.38;;;2.15;;
13795;SDS011;40911;51.552;9.874;2023-05-31T12:05:17;9.00;;;1.90;;
13795;SDS011;40911;51.552;9.874;2023-05-31T12:07:39;5.68;;;2.17;;
13795;SDS011;40911;51.552;9.874;2023-05-31T12:10:01;6.68;;;1.92;;
13795;SDS011;40911;51.552;9.874;2023-05-31T12:12:26;5.10;;;1.80;;
13795;SDS011;40911;51.552;9.874;2023-05-31T12:14:52;5.20;;;2.03;;
13795;SDS011;40911;51.552;9.874;2023-05-31T12:17:14;5.25;;;2.13;;
13795;SDS011;40911;51.552;9.874;2023-05-31T12:19:36;5.22;;;1.85;;
13795;SDS011;40911;51.552;9.874;2023-05-31T12:21:58;5.13;;;2.30;;
13795;SDS011;40911;51.552;9.874;2023-05-31T12:24:20;4.53;;;2.05;;
13795;SDS011;40911;51.552;9.874;2023-05-31T12:26:41;6.95;;;1.90;;
13795;SDS011;40911;51.552;9.874;2023-05-31T12:29:04;6.97;;;2.13;;
13795;SDS011;40911;51.552;9.874;2023-05-31T12:31:27;6.13;;;1.85;;
13795;SDS011;40911;51.552;9.874;2023-05-31T12:33:58;4.68;;;1.75;;
13795;SDS011;40911;51.552;9.874;2023-05-31T12:36:21;7.22;;;2.33;;
13795;SDS011;40911;51.552;9.874;2023-05-31T12:38:42;6.63;;;1.85;;
13795;SDS011;40911;51.552;9.874;2023-05-31T12:41:04;6.60;;;1.80;;
13795;SDS011;40911;51.552;9.874;2023-05-31T12:43:26;4.97;;;1.83;;
13795;SDS011;40911;51.552;9.874;2023-05-31T12:45:52;3.83;;;1.60;;
13795;SDS011;40911;51.552;9.874;2023-05-31T12:48:15;6.03;;;2.25;;
13795;SDS011;40911;51.552;9.874;2023-05-31T12:50:44;5.45;;;1.85;;
13795;SDS011;40911;51.552;9.874;2023-05-31T12:53:06;5.95;;;1.80;;
13795;SDS011;40911;51.552;9.874;2023-05-31T12:55:28;3.08;;;1.63;;
13795;SDS011;40911;51.552;9.874;2023-05-31T12:57:50;5.45;;;1.90;;
13795;SDS011;40911;51.552;9.874;2023-05-31T13:00:12;4.03;;;1.90;;
13795;SDS011;40911;51.552;9.874;2023-05-31T13:02:34;6.57;;;1.77;;
13795;SDS011;40911;51.552;9.874;2023-05-31T13:04:57;4.55;;;2.00;;
13795;SDS011;40911;51.552;9.874;2023-05-31T13:07:19;6.85;;;1.88;;
13795;SDS011;40911;51.552;9.874;2023-05-31T13:09:41;3.67;;;1.70;;
13795;SDS011;40911;51.552;9.874;2023-05-31T13:12:03;5.60;;;2.00;;
13795;SDS011;40911;51.552;9.874;2023-05-31T13:14:25;5.00;;;1.90;;
13795;SDS011;40911;51.552;9.874;2023-05-31T13:16:46;9.13;;;1.85;;
13795;SDS011;40911;51.552;9.874;2023-05-31T13:19:08;6.65;;;1.92;;
13795;SDS011;40911;51.552;9.874;2023-05-31T13:21:31;4.82;;;1.90;;
13795;SDS011;40911;51.552;9.874;2023-05-31T13:23:55;4.28;;;1.80;;
13795;SDS011;40911;51.552;9.874;2023-05-31T13:26:17;6.25;;;2.15;;
13795;SDS011;40911;51.552;9.874;2023-05-31T13:28:39;5.10;;;1.70;;
13795;SDS011;40911;51.552;9.874;2023-05-31T13:31:01;7.47;;;2.22;;
13795;SDS011;40911;51.552;9.874;2023-05-31T13:33:23;4.95;;;1.80;;
13795;SDS011;40911;51.552;9.874;2023-05-31T13:35:46;6.00;;;1.90;;
13795;SDS011;40911;51.552;9.874;2023-05-31T13:38:09;4.38;;;2.00;;
13795;SDS011;40911;51.552;9.874;2023-05-31T13:40:31;11.00;;;2.50;;
13795;SDS011;40911;51.552;9.874;2023-05-31T13:42:54;4.40;;;1.90;;
13795;SDS011;40911;51.552;9.874;2023-05-31T13:45:15;5.55;;;2.03;;
13795;SDS011;40911;51.552;9.874;2023-05-31T13:47:37;5.45;;;2.20;;
13795;SDS011;40911;51.552;9.874;2023-05-31T13:49:59;6.85;;;1.90;;
13795;SDS011;40911;51.552;9.874;2023-05-31T13:52:20;5.78;;;2.30;;
13795;SDS011;40911;51.552;9.874;2023-05-31T13:54:44;9.25;;;2.15;;
13795;SDS011;40911;51.552;9.874;2023-05-31T13:57:05;5.53;;;1.90;;
13795;SDS011;40911;51.552;9.874;2023-05-31T13:59:27;4.20;;;1.80;;
13795;SDS011;40911;51.552;9.874;2023-05-31T14:01:49;4.78;;;2.10;;
13795;SDS011;40911;51.552;9.874;2023-05-31T14:04:11;4.85;;;2.05;;
13795;SDS011;40911;51.552;9.874;2023-05-31T14:06:33;6.20;;;1.83;;
13795;SDS011;40911;51.552;9.874;2023-05-31T14:08:55;5.95;;;1.90;;
13795;SDS011;40911;51.552;9.874;2023-05-31T14:11:18;4.63;;;1.70;;
13795;SDS011;40911;51.552;9.874;2023-05-31T14:13:42;5.75;;;2.00;;
13795;SDS011;40911;51.552;9.874;2023-05-31T14:16:03;7.65;;;2.00;;
13795;SDS011;40911;51.552;9.874;2023-05-31T14:18:25;6.85;;;2.00;;
13795;SDS011;40911;51.552;9.874;2023-05-31T14:20:48;4.70;;;1.75;;
13795;SDS011;40911;51.552;9.874;2023-05-31T14:23:10;4.18;;;2.05;;
13795;SDS011;40911;51.552;9.874;2023-05-31T14:25:32;6.60;;;2.13;;
13795;SDS011;40911;51.552;9.874;2023-05-31T14:27:55;6.32;;;1.80;;
13795;SDS011;40911;51.552;9.874;2023-05-31T14:30:17;8.05;;;1.92;;
13795;SDS011;40911;51.552;9.874;2023-05-31T14:32:39;9.55;;;2.35;;
13795;SDS011;40911;51.552;9.874;2023-05-31T14:35:00;7.53;;;2.08;;
13795;SDS011;40911;51.552;9.874;2023-05-31T14:37:22;7.82;;;2.30;;
13795;SDS011;40911;51.552;9.874;2023-05-31T14:39:44;5.07;;;2.20;;
13795;SDS011;40911;51.552;9.874;2023-05-31T14:42:06;6.15;;;1.95;;
13795;SDS011;40911;51.552;9.874;2023-05-31T14:44:29;6.28;;;1.80;;
13795;SDS011;40911;51.552;9.874;2023-05-31T14:46:51;9.25;;;2.17;;
13795;SDS011;40911;51.552;9.874;2023-05-31T14:49:14;8.50;;;2.10;;
13795;SDS011;40911;51.552;9.874;2023-05-31T14:51:36;5.72;;;2.22;;
13795;SDS011;40911;51.552;9.874;2023-05-31T14:53:58;8.05;;;2.03;;
13795;SDS011;40911;51.552;9.874;2023-05-31T14:56:20;9.73;;;1.98;;
13795;SDS011;40911;51.552;9.874;2023-05-31T14:58:42;6.05;;;2.00;;
13795;SDS011;40911;51.552;9.874;2023-05-31T15:01:07;7.25;;;2.15;;
13795;SDS011;40911;51.552;9.874;2023-05-31T15:03:28;4.05;;;2.10;;
13795;SDS011;40911;51.552;9.874;2023-05-31T15:05:50;10.25;;;1.80;;
13795;SDS011;40911;51.552;9.874;2023-05-31T15:08:12;5.18;;;1.73;;
13795;SDS011;40911;51.552;9.874;2023-05-31T15:10:33;13.52;;;2.35;;
13795;SDS011;40911;51.552;9.874;2023-05-31T15:12:55;5.10;;;1.90;;
13795;SDS011;40911;51.552;9.874;2023-05-31T15:15:17;7.28;;;2.00;;
13795;SDS011;40911;51.552;9.874;2023-05-31T15:17:40;4.68;;;1.73;;
13795;SDS011;40911;51.552;9.874;2023-05-31T15:20:01;8.35;;;1.90;;
13795;SDS011;40911;51.552;9.874;2023-05-31T15:22:23;4.22;;;1.77;;
13795;SDS011;40911;51.552;9.874;2023-05-31T15:24:45;4.15;;;2.00;;
13795;SDS011;40911;51.552;9.874;2023-05-31T15:27:07;7.65;;;1.80;;
13795;SDS011;40911;51.552;9.874;2023-05-31T15:29:30;4.50;;;1.65;;
13795;SDS011;40911;51.552;9.874;2023-05-31T15:31:52;7.20;;;1.88;;
13795;SDS011;40911;51.552;9.874;2023-05-31T15:34:17;16.13;;;2.13;;
13795;SDS011;40911;51.552;9.874;2023-05-31T15:36:39;18.70;;;2.25;;
13795;SDS011;40911;51.552;9.874;2023-05-31T15:39:01;7.93;;;1.58;;
13795;SDS011;40911;51.552;9.874;2023-05-31T15:41:23;4.50;;;1.50;;
13795;SDS011;40911;51.552;9.874;2023-05-31T15:43:45;5.75;;;1.50;;
13795;SDS011;40911;51.552;9.874;2023-05-31T15:46:07;10.20;;;1.90;;
13795;SDS011;40911;51.552;9.874;2023-05-31T15:48:29;3.15;;;1.73;;
13795;SDS011;40911;51.552;9.874;2023-05-31T15:50:53;5.72;;;1.58;;
13795;SDS011;40911;51.552;9.874;2023-05-31T15:53:14;4.43;;;1.67;;
13795;SDS011;40911;51.552;9.874;2023-05-31T15:55:36;3.78;;;1.55;;
13795;SDS011;40911;51.552;9.874;2023-05-31T15:57:58;2.95;;;1.42;;
13795;SDS011;40911;51.552;9.874;2023-05-31T16:00:20;1.98;;;1.38;;
13795;SDS011;40911;51.552;9.874;2023-05-31T16:02:41;3.22;;;1.45;;
13795;SDS011;40911;51.552;9.874;2023-05-31T16:05:03;6.28;;;1.52;;